Time;durP1;ratioP1;P1;durP2;ratioP2;P2;SDS_P1;SDS_P2;PMS_P1;PMS_P2;Temp;Humidity;BMP_temperature;BMP_pressure;BME280_temperature;BME280_humidity;BME280_pressure;Samples;Min_cycle;Max_cycle;Signal;HPM_P1;HPM_P2
2023/11/18 00:00:59;;;;;;;7.17;3.50;;;7.20;98.00;;;;;;5014506;28;20482;-87
2023/11/18 00:03:26;;;;;;;7.10;3.60;;;7.20;98.00;;;;;;5014560;28;20491;-88
2023/11/18 00:05:53;;;;;;;6.40;3.30;;;7.30;98.00;;;;;;5013469;28;20464;-87
2023/11/18 00:08:20;;;;;;;8.17;3.40;;;7.20;98.00;;;;;;5013023;28;20456;-87
2023/11/18 00:10:47;;;;;;;7.53;3.63;;;7.30;98.00;;;;;;5013131;28;20482;-88
2023/11/18 00:13:16;;;;;;;8.30;3.80;;;7.30;98.00;;;;;;5013506;28;20996;-87
2023/11/18 00:15:45;;;;;;;5.43;3.13;;;7.30;98.00;;;;;;5012832;28;20502;-88
2023/11/18 00:18:13;;;;;;;6.47;3.50;;;7.20;98.00;;;;;;5012996;28;20462;-88
2023/11/18 00:20:40;;;;;;;7.40;3.67;;;7.20;98.00;;;;;;5012747;28;20562;-88
2023/11/18 00:23:07;;;;;;;7.10;3.47;;;7.20;98.00;;;;;;5012886;28;20437;-87
2023/11/18 00:25:36;;;;;;;7.23;3.83;;;7.30;98.00;;;;;;5013157;28;20478;-88
2023/11/18 00:28:03;;;;;;;6.23;3.47;;;7.30;98.00;;;;;;5012842;28;20462;-88
2023/11/18 00:30:32;;;;;;;10.80;4.83;;;7.30;98.00;;;;;;5012223;28;20443;-88
2023/11/18 00:32:59;;;;;;;6.87;3.70;;;7.20;98.00;;;;;;5012745;28;20456;-87
2023/11/18 00:35:26;;;;;;;10.63;4.27;;;7.30;98.00;;;;;;5012779;28;20470;-88
2023/11/18 00:37:53;;;;;;;7.50;4.10;;;7.30;98.00;;;;;;5012773;28;20452;-88
2023/11/18 00:40:20;;;;;;;8.77;4.17;;;7.40;98.00;;;;;;5012516;28;20546;-87
2023/11/18 00:42:47;;;;;;;8.27;4.27;;;7.30;98.00;;;;;;5012865;28;20471;-87
2023/11/18 00:45:14;;;;;;;8.30;4.17;;;7.30;98.00;;;;;;5012538;28;20483;-87
2023/11/18 00:47:42;;;;;;;10.37;4.60;;;7.30;98.00;;;;;;5012777;28;20458;-88
2023/11/18 00:50:10;;;;;;;9.27;4.77;;;7.30;98.00;;;;;;5012086;28;20878;-87
2023/11/18 00:52:38;;;;;;;7.73;4.43;;;7.20;98.00;;;;;;5012693;28;20511;-87
2023/11/18 00:55:07;;;;;;;8.80;4.73;;;7.20;98.00;;;;;;5013019;28;20450;-88
2023/11/18 00:57:35;;;;;;;7.10;3.80;;;7.10;98.00;;;;;;5012614;28;20498;-88
2023/11/18 01:00:02;;;;;;;7.00;4.07;;;7.10;98.00;;;;;;5012150;28;20449;-88
2023/11/18 01:02:29;;;;;;;7.50;3.77;;;7.00;98.00;;;;;;5012770;28;20482;-88
2023/11/18 01:04:58;;;;;;;9.43;4.63;;;7.00;98.00;;;;;;5012218;28;20614;-88
2023/11/18 01:07:25;;;;;;;8.40;4.23;;;7.10;98.00;;;;;;5012716;28;20502;-88
2023/11/18 01:09:52;;;;;;;10.87;5.00;;;7.00;98.00;;;;;;5012036;28;20537;-88
2023/11/18 01:12:20;;;;;;;10.03;4.90;;;7.00;98.00;;;;;;5012373;28;20484;-88
2023/11/18 01:14:47;;;;;;;11.50;4.30;;;6.90;98.00;;;;;;5012499;28;20461;-88
2023/11/18 01:17:14;;;;;;;8.57;4.10;;;7.00;98.00;;;;;;5012550;28;20892;-87
2023/11/18 01:19:41;;;;;;;7.50;4.20;;;7.00;98.00;;;;;;5012189;28;20552;-88
2023/11/18 01:22:11;;;;;;;9.93;4.40;;;7.10;98.00;;;;;;5012493;28;20549;-88
2023/11/18 01:24:38;;;;;;;11.70;4.70;;;7.10;98.00;;;;;;5012619;28;20500;-87
2023/11/18 01:27:07;;;;;;;8.77;4.40;;;7.20;98.00;;;;;;5012333;28;21159;-87
2023/11/18 01:29:34;;;;;;;7.60;4.07;;;7.40;98.00;;;;;;5011644;28;20453;-87
2023/11/18 01:32:08;;;;;;;7.23;4.00;;;7.40;98.00;;;;;;5012350;28;20485;-87
2023/11/18 01:34:36;;;;;;;9.03;4.43;;;7.50;98.00;;;;;;5012052;28;20465;-88
2023/11/18 01:37:04;;;;;;;10.00;4.50;;;7.50;98.00;;;;;;5011866;28;20508;-88
2023/11/18 01:39:33;;;;;;;6.93;3.80;;;7.50;98.00;;;;;;5012180;28;20450;-88
2023/11/18 01:42:00;;;;;;;6.17;3.50;;;7.40;98.00;;;;;;5012308;28;20543;-87
2023/11/18 01:44:28;;;;;;;8.33;4.50;;;7.40;98.00;;;;;;5012005;28;21005;-88
2023/11/18 01:46:55;;;;;;;5.80;3.53;;;7.30;98.00;;;;;;5011819;28;20466;-88
2023/11/18 01:49:23;;;;;;;8.23;4.13;;;7.10;98.00;;;;;;5011650;28;20552;-87
2023/11/18 01:51:52;;;;;;;8.80;4.17;;;7.10;98.00;;;;;;5011831;28;20497;-88
2023/11/18 01:54:19;;;;;;;10.17;4.70;;;6.90;98.00;;;;;;5012254;28;20500;-88
2023/11/18 01:56:49;;;;;;;9.10;4.47;;;6.90;98.00;;;;;;5011972;28;20896;-88
2023/11/18 01:59:18;;;;;;;7.53;3.90;;;6.70;98.00;;;;;;5011310;28;20458;-88
2023/11/18 02:01:49;;;;;;;8.03;4.00;;;6.60;98.00;;;;;;5012791;28;20891;-88
2023/11/18 02:04:19;;;;;;;8.40;4.20;;;6.50;98.00;;;;;;5015778;28;20837;-88
2023/11/18 02:06:47;;;;;;;5.83;3.63;;;6.60;98.00;;;;;;5015750;28;20502;-88
2023/11/18 02:09:17;;;;;;;8.10;3.93;;;6.60;98.00;;;;;;5015253;28;20976;-88
2023/11/18 02:11:54;;;;;;;6.00;4.00;;;6.70;98.00;;;;;;5015539;28;20555;-88
2023/11/18 02:14:23;;;;;;;6.20;3.63;;;6.80;98.00;;;;;;5015377;28;20453;-88
2023/11/18 02:16:53;;;;;;;6.67;4.20;;;6.80;98.00;;;;;;5015297;28;21003;-87
2023/11/18 02:19:22;;;;;;;8.80;3.97;;;6.70;98.00;;;;;;5015955;28;20466;-87
2023/11/18 02:21:50;;;;;;;6.57;3.50;;;6.70;98.00;;;;;;5034565;28;20487;-87
2023/11/18 02:24:27;;;;;;;7.40;3.73;;;6.70;98.00;;;;;;5034820;28;20443;-88
2023/11/18 02:26:58;;;;;;;9.63;4.20;;;6.70;98.00;;;;;;5035023;28;20514;-88
2023/11/18 02:29:26;;;;;;;8.80;3.93;;;6.80;98.00;;;;;;5034892;28;20860;-88
2023/11/18 02:31:58;;;;;;;8.93;4.10;;;6.80;98.00;;;;;;5034948;28;20526;-88
2023/11/18 02:34:31;;;;;;;9.87;4.07;;;7.00;98.00;;;;;;5034800;28;20517;-87
2023/11/18 02:37:02;;;;;;;8.50;4.00;;;7.00;98.00;;;;;;5032255;28;20467;-88
2023/11/18 02:39:38;;;;;;;6.00;3.30;;;7.00;98.00;;;;;;5034125;28;20918;-87
2023/11/18 02:42:08;;;;;;;7.60;3.80;;;7.10;98.00;;;;;;5034785;28;20476;-87
2023/11/18 02:44:37;;;;;;;6.40;3.80;;;7.00;98.00;;;;;;5034240;28;20471;-87
2023/11/18 02:47:06;;;;;;;9.40;3.70;;;7.00;98.00;;;;;;5034527;28;20826;-88
2023/11/18 02:49:33;;;;;;;7.40;3.93;;;7.00;98.00;;;;;;5034042;28;20520;-88
2023/11/18 02:52:00;;;;;;;5.53;3.10;;;7.00;98.00;;;;;;5034298;28;20544;-87
2023/11/18 02:54:28;;;;;;;7.50;3.87;;;6.80;98.00;;;;;;5034594;28;20529;-88
2023/11/18 02:56:56;;;;;;;5.60;3.10;;;6.80;98.00;;;;;;5033934;28;20459;-87
2023/11/18 02:59:24;;;;;;;8.80;4.10;;;6.70;98.00;;;;;;5034194;28;20641;-88
2023/11/18 03:01:55;;;;;;;7.27;3.50;;;6.60;98.00;;;;;;5034439;28;20825;-87
2023/11/18 03:04:23;;;;;;;8.20;3.83;;;6.60;98.00;;;;;;5033903;28;20485;-88
2023/11/18 03:06:51;;;;;;;6.63;3.63;;;6.50;98.00;;;;;;5034288;28;20466;-88
2023/11/18 03:09:18;;;;;;;6.50;3.43;;;6.60;98.00;;;;;;5033584;28;20831;-87
2023/11/18 03:11:45;;;;;;;6.67;3.60;;;6.70;98.00;;;;;;5034340;28;21015;-87
2023/11/18 03:14:13;;;;;;;6.90;3.37;;;6.70;98.00;;;;;;5033337;28;20463;-88
2023/11/18 03:16:41;;;;;;;6.83;3.73;;;6.70;98.00;;;;;;5034036;28;20463;-87
2023/11/18 03:19:08;;;;;;;9.13;3.90;;;6.50;98.00;;;;;;5033583;28;20487;-87
2023/11/18 03:21:36;;;;;;;8.37;3.87;;;6.50;98.00;;;;;;5034082;28;20721;-88
2023/11/18 03:24:04;;;;;;;9.40;3.93;;;6.50;98.00;;;;;;5033576;28;20463;-87
2023/11/18 03:26:32;;;;;;;5.83;3.37;;;6.60;98.00;;;;;;5033958;28;20923;-87
2023/11/18 03:28:59;;;;;;;12.70;4.23;;;6.80;98.00;;;;;;5033250;28;20496;-88
2023/11/18 03:31:26;;;;;;;7.33;3.50;;;6.70;98.00;;;;;;5033886;28;20493;-87
2023/11/18 03:33:54;;;;;;;7.30;3.87;;;6.60;98.00;;;;;;5033363;28;20960;-87
2023/11/18 03:36:21;;;;;;;7.37;3.97;;;6.70;98.00;;;;;;5033691;28;20518;-88
2023/11/18 03:38:49;;;;;;;7.37;3.57;;;6.70;98.00;;;;;;5033465;28;20460;-87
2023/11/18 03:41:16;;;;;;;6.60;3.83;;;6.70;98.00;;;;;;5033488;28;20483;-87
2023/11/18 03:43:43;;;;;;;6.20;3.70;;;6.60;98.00;;;;;;5033532;28;20466;-87
2023/11/18 03:46:10;;;;;;;7.07;3.27;;;6.60;98.00;;;;;;5033132;28;20590;-87
2023/11/18 03:48:37;;;;;;;6.50;3.47;;;6.60;98.00;;;;;;5033725;28;20463;-88
2023/11/18 03:51:06;;;;;;;6.73;3.40;;;6.60;98.00;;;;;;5032997;28;20569;-88
2023/11/18 03:53:34;;;;;;;9.77;3.70;;;6.60;98.00;;;;;;5033052;28;20517;-88
2023/11/18 03:56:02;;;;;;;8.70;3.80;;;6.50;98.00;;;;;;5033499;28;20531;-88
2023/11/18 03:58:29;;;;;;;5.50;3.07;;;6.50;98.00;;;;;;5033604;28;20813;-88
2023/11/18 04:00:57;;;;;;;5.77;3.00;;;6.40;98.00;;;;;;5032925;28;20478;-87
2023/11/18 04:03:24;;;;;;;5.90;3.03;;;6.40;98.00;;;;;;5033201;28;20457;-87
2023/11/18 04:05:51;;;;;;;5.57;3.20;;;6.40;98.00;;;;;;5033238;28;20541;-88
2023/11/18 04:08:21;;;;;;;5.77;3.07;;;6.40;98.00;;;;;;5033577;28;20443;-88
2023/11/18 04:10:48;;;;;;;6.43;3.20;;;6.40;98.00;;;;;;5033973;28;20811;-89
2023/11/18 04:13:15;;;;;;;5.93;3.10;;;6.30;98.00;;;;;;5033248;28;20460;-88
2023/11/18 04:15:42;;;;;;;4.00;2.60;;;6.20;98.00;;;;;;5033161;28;20457;-89
2023/11/18 04:18:09;;;;;;;7.93;3.70;;;6.10;98.00;;;;;;5034404;28;21349;-88
2023/11/18 04:20:36;;;;;;;5.73;3.30;;;6.00;98.00;;;;;;5033366;28;20553;-88
2023/11/18 04:23:04;;;;;;;7.20;3.83;;;6.00;98.00;;;;;;5032480;28;20458;-87
2023/11/18 04:25:33;;;;;;;8.07;3.50;;;6.20;98.00;;;;;;5033037;28;20486;-87
2023/11/18 04:28:00;;;;;;;8.93;3.70;;;6.30;98.00;;;;;;5032876;28;20467;-87
2023/11/18 04:30:27;;;;;;;5.50;3.03;;;6.30;98.00;;;;;;5032267;28;20465;-87
2023/11/18 04:32:54;;;;;;;5.77;3.30;;;6.40;98.00;;;;;;5032833;28;20460;-88
2023/11/18 04:35:22;;;;;;;6.50;3.23;;;6.30;98.00;;;;;;5032676;28;20474;-88
2023/11/18 04:37:49;;;;;;;6.33;3.47;;;6.30;98.00;;;;;;5032679;28;20604;-88
2023/11/18 04:40:16;;;;;;;8.30;3.17;;;6.20;98.00;;;;;;5032136;28;20439;-88
2023/11/18 04:42:45;;;;;;;7.90;3.80;;;6.30;98.00;;;;;;5032362;28;20451;-87
2023/11/18 04:45:14;;;;;;;5.50;3.40;;;6.40;98.00;;;;;;5032193;28;20531;-87
2023/11/18 04:47:42;;;;;;;5.33;3.10;;;6.30;98.00;;;;;;5032708;28;20455;-88
2023/11/18 04:50:11;;;;;;;5.60;3.20;;;6.30;98.00;;;;;;5031876;28;20460;-88
2023/11/18 04:52:38;;;;;;;5.27;3.10;;;6.40;98.00;;;;;;5032098;28;20517;-88
2023/11/18 04:55:07;;;;;;;5.63;3.50;;;6.30;98.00;;;;;;5032104;28;20527;-88
2023/11/18 04:57:34;;;;;;;5.37;3.03;;;6.10;98.00;;;;;;5032145;28;20510;-87
2023/11/18 05:00:10;;;;;;;6.03;3.20;;;6.10;98.00;;;;;;5032025;28;20557;-88
2023/11/18 05:02:37;;;;;;;5.93;3.03;;;6.00;98.00;;;;;;5032581;28;20481;-88
2023/11/18 05:05:06;;;;;;;7.17;3.23;;;6.10;98.00;;;;;;5032073;28;20466;-88
2023/11/18 05:07:34;;;;;;;5.87;3.70;;;6.30;98.00;;;;;;5032237;28;20465;-88
2023/11/18 05:10:04;;;;;;;7.03;3.70;;;6.30;98.00;;;;;;5031696;28;20460;-87
2023/11/18 05:12:33;;;;;;;8.87;4.40;;;6.10;98.00;;;;;;5032371;28;20566;-87
2023/11/18 05:15:00;;;;;;;9.90;4.50;;;6.00;98.00;;;;;;5032283;28;20834;-87
2023/11/18 05:17:29;;;;;;;7.40;3.90;;;6.10;98.00;;;;;;5031907;28;20450;-87
2023/11/18 05:19:56;;;;;;;8.40;4.10;;;6.10;98.00;;;;;;5031596;28;20966;-87
2023/11/18 05:22:23;;;;;;;9.43;4.20;;;6.00;98.00;;;;;;5031609;28;20486;-88
2023/11/18 05:24:50;;;;;;;6.27;3.50;;;6.10;98.00;;;;;;5031643;28;20951;-87
2023/11/18 05:27:18;;;;;;;8.10;3.70;;;6.10;98.00;;;;;;5032162;28;20490;-87
2023/11/18 05:29:48;;;;;;;9.50;4.47;;;5.90;98.00;;;;;;5031663;28;20541;-88
2023/11/18 05:32:15;;;;;;;11.60;4.30;;;5.80;98.00;;;;;;5032418;28;20837;-87
2023/11/18 05:34:43;;;;;;;8.50;3.80;;;5.70;98.00;;;;;;5031844;28;20596;-87
2023/11/18 05:37:11;;;;;;;6.90;3.77;;;5.60;98.00;;;;;;5033301;28;20504;-88
2023/11/18 05:39:42;;;;;;;7.90;3.57;;;5.60;98.00;;;;;;5035765;28;20464;-88
2023/11/18 05:42:10;;;;;;;7.10;3.83;;;5.70;98.00;;;;;;5035670;28;20570;-88
2023/11/18 05:44:39;;;;;;;6.10;3.43;;;5.60;98.00;;;;;;5035600;28;20885;-88
2023/11/18 05:47:06;;;;;;;7.53;3.40;;;5.60;98.00;;;;;;5035554;28;20479;-87
2023/11/18 05:49:34;;;;;;;7.37;3.70;;;5.60;98.00;;;;;;5035385;28;20458;-87
2023/11/18 05:52:02;;;;;;;7.10;3.80;;;5.50;98.00;;;;;;5035884;28;20983;-87
2023/11/18 05:54:30;;;;;;;5.03;3.40;;;5.50;98.00;;;;;;5035610;28;20797;-87
2023/11/18 05:57:00;;;;;;;9.20;4.07;;;5.50;98.00;;;;;;5035640;28;20572;-87
2023/11/18 05:59:27;;;;;;;11.87;5.57;;;5.40;98.00;;;;;;5035123;28;20480;-87
2023/11/18 06:01:56;;;;;;;11.30;4.47;;;5.30;98.00;;;;;;5035526;28;21062;-87
2023/11/18 06:04:23;;;;;;;10.83;4.67;;;5.20;98.00;;;;;;5035108;28;20457;-87
2023/11/18 06:06:50;;;;;;;9.67;4.67;;;5.20;98.00;;;;;;5035453;28;20482;-88
2023/11/18 06:09:25;;;;;;;17.97;6.63;;;5.10;98.00;;;;;;5034810;28;20459;-88
2023/11/18 06:11:53;;;;;;;13.90;5.93;;;5.10;98.00;;;;;;5035356;28;20482;-87
2023/11/18 06:14:20;;;;;;;14.93;6.50;;;5.10;98.00;;;;;;5035372;28;20922;-87
2023/11/18 06:16:50;;;;;;;10.73;5.00;;;5.10;98.00;;;;;;5035397;28;20489;-88
2023/11/18 06:19:17;;;;;;;10.83;5.13;;;5.10;98.00;;;;;;5034840;28;20459;-88
2023/11/18 06:21:44;;;;;;;7.00;3.83;;;5.10;98.00;;;;;;5035274;28;20506;-88
2023/11/18 06:24:13;;;;;;;7.30;3.77;;;5.00;98.00;;;;;;5034903;28;20454;-87
2023/11/18 06:26:42;;;;;;;7.23;3.30;;;4.80;98.00;;;;;;5035175;28;20489;-87
2023/11/18 06:29:09;;;;;;;6.17;3.10;;;4.80;98.00;;;;;;5034629;28;20449;-88
2023/11/18 06:31:36;;;;;;;7.83;3.30;;;4.80;98.00;;;;;;5035066;28;20484;-87
2023/11/18 06:34:03;;;;;;;4.63;2.53;;;4.70;98.00;;;;;;5034636;28;20513;-88
2023/11/18 06:36:31;;;;;;;4.43;2.80;;;4.70;98.00;;;;;;5034542;28;20490;-88
2023/11/18 06:39:08;;;;;;;6.00;3.20;;;4.60;98.00;;;;;;5034319;28;20510;-88
2023/11/18 06:41:36;;;;;;;7.60;3.10;;;4.60;98.00;;;;;;5034899;28;20515;-87
2023/11/18 06:44:12;;;;;;;6.93;3.63;;;4.40;98.00;;;;;;5034361;28;21071;-88
2023/11/18 06:46:40;;;;;;;8.80;4.37;;;4.40;98.00;;;;;;5034889;28;21001;-88
2023/11/18 06:49:10;;;;;;;5.23;3.40;;;4.40;98.00;;;;;;5033039;28;20547;-87
2023/11/18 06:51:37;;;;;;;4.20;2.73;;;4.50;98.00;;;;;;5034640;28;20498;-88
2023/11/18 06:54:14;;;;;;;6.83;2.60;;;4.50;98.00;;;;;;5034301;28;20522;-87
2023/11/18 06:56:43;;;;;;;3.30;2.13;;;4.60;98.00;;;;;;5034604;28;20462;-88
2023/11/18 06:59:13;;;;;;;3.80;2.40;;;4.50;98.00;;;;;;5033785;28;20809;-85
2023/11/18 07:01:42;;;;;;;5.23;2.97;;;4.60;98.00;;;;;;5034042;28;20578;-86
2023/11/18 07:04:09;;;;;;;22.93;9.33;;;4.50;98.00;;;;;;5033886;28;20494;-86
2023/11/18 07:06:38;;;;;;;11.97;4.60;;;4.60;98.00;;;;;;5033799;28;20583;-85
2023/11/18 07:09:12;;;;;;;6.30;3.40;;;4.60;98.00;;;;;;5033567;28;20485;-85
2023/11/18 07:11:40;;;;;;;4.80;2.83;;;4.70;98.00;;;;;;5034251;28;20470;-85
2023/11/18 07:14:09;;;;;;;5.57;2.90;;;4.70;98.00;;;;;;5033844;28;20523;-85
2023/11/18 07:16:38;;;;;;;3.50;2.47;;;4.70;98.00;;;;;;5033756;28;20458;-85
2023/11/18 07:19:05;;;;;;;3.97;2.40;;;4.60;98.00;;;;;;5033183;28;20876;-85
2023/11/18 07:21:33;;;;;;;3.80;2.17;;;4.60;98.00;;;;;;5033369;28;20474;-85
2023/11/18 07:24:01;;;;;;;5.10;2.40;;;4.70;98.00;;;;;;5032678;28;20918;-85
2023/11/18 07:26:28;;;;;;;3.87;2.57;;;4.80;98.00;;;;;;5033009;28;20497;-85
2023/11/18 07:28:56;;;;;;;4.20;2.40;;;4.90;98.00;;;;;;5032297;28;20967;-85
2023/11/18 07:31:24;;;;;;;3.90;2.27;;;5.00;98.00;;;;;;5032413;28;20476;-85
2023/11/18 07:33:52;;;;;;;5.27;3.07;;;5.10;98.00;;;;;;5032251;28;20476;-85
2023/11/18 07:36:20;;;;;;;8.20;3.50;;;5.10;98.00;;;;;;5032870;28;20470;-86
2023/11/18 07:38:47;;;;;;;6.73;3.10;;;5.10;98.00;;;;;;5032469;28;20486;-85
2023/11/18 07:41:23;;;;;;;6.20;3.30;;;5.10;98.00;;;;;;5031834;28;20483;-85
2023/11/18 07:43:51;;;;;;;4.87;2.53;;;5.20;98.00;;;;;;5033034;28;20457;-86
2023/11/18 07:46:18;;;;;;;4.50;2.70;;;5.20;98.00;;;;;;5032103;28;20515;-86
2023/11/18 07:48:45;;;;;;;4.40;2.43;;;5.40;98.00;;;;;;5033301;28;21026;-85
2023/11/18 07:51:14;;;;;;;3.90;2.47;;;5.40;98.00;;;;;;5032732;28;20477;-85
2023/11/18 07:53:42;;;;;;;6.60;3.00;;;5.50;98.00;;;;;;5033000;28;20482;-85
2023/11/18 07:56:10;;;;;;;5.07;2.73;;;5.60;98.00;;;;;;5032691;28;20547;-85
2023/11/18 07:58:37;;;;;;;4.93;2.73;;;5.50;98.00;;;;;;5032488;28;20514;-85
2023/11/18 08:01:07;;;;;;;6.23;2.90;;;5.70;98.00;;;;;;5031873;28;20480;-85
2023/11/18 08:03:34;;;;;;;9.57;4.57;;;5.70;98.00;;;;;;5032197;28;20489;-86
2023/11/18 08:06:02;;;;;;;11.40;4.20;;;5.80;98.00;;;;;;5032899;28;20892;-85
2023/11/18 08:08:31;;;;;;;7.30;3.83;;;5.90;98.00;;;;;;5032220;28;20734;-86
2023/11/18 08:10:58;;;;;;;11.30;5.03;;;6.10;98.00;;;;;;5032420;28;20825;-86
2023/11/18 08:13:25;;;;;;;9.63;4.20;;;6.20;98.00;;;;;;5032885;28;20464;-85
2023/11/18 08:15:53;;;;;;;13.20;4.53;;;6.20;98.00;;;;;;5032462;28;20463;-85
2023/11/18 08:18:21;;;;;;;8.00;3.37;;;6.20;98.00;;;;;;5031626;28;20466;-85
2023/11/18 08:20:48;;;;;;;6.40;3.63;;;6.20;98.00;;;;;;5031720;28;20508;-85
2023/11/18 08:23:15;;;;;;;8.57;4.70;;;6.30;98.00;;;;;;5032142;28;20465;-85
2023/11/18 08:25:43;;;;;;;10.13;4.90;;;6.60;98.00;;;;;;5032368;28;20454;-85
2023/11/18 08:28:11;;;;;;;16.13;5.90;;;6.60;98.00;;;;;;5031916;28;20496;-85
2023/11/18 08:30:39;;;;;;;11.83;6.00;;;6.60;98.00;;;;;;5031518;28;20495;-85
2023/11/18 08:33:08;;;;;;;14.37;5.17;;;6.60;98.00;;;;;;5031672;28;20464;-85
2023/11/18 08:35:35;;;;;;;14.57;6.03;;;6.70;98.00;;;;;;5031473;28;20524;-85
2023/11/18 08:38:04;;;;;;;12.97;4.90;;;6.70;98.00;;;;;;5031724;28;20549;-85
2023/11/18 08:40:31;;;;;;;10.57;5.20;;;6.70;98.00;;;;;;5031145;28;20470;-85
2023/11/18 08:43:01;;;;;;;12.73;5.23;;;6.70;98.00;;;;;;5031529;28;20466;-85
2023/11/18 08:45:29;;;;;;;18.10;5.33;;;6.70;98.00;;;;;;5031764;28;20884;-84
2023/11/18 08:47:57;;;;;;;11.73;5.13;;;6.90;98.00;;;;;;5031640;28;20578;-85
2023/11/18 08:50:24;;;;;;;11.63;5.90;;;7.00;98.00;;;;;;5031133;28;20550;-85
2023/11/18 08:52:57;;;;;;;8.90;4.63;;;7.20;98.00;;;;;;5031321;28;20461;-84
2023/11/18 08:55:38;;;;;;;8.57;4.53;;;7.20;98.00;;;;;;5031558;28;20491;-85
2023/11/18 08:58:15;;;;;;;6.20;3.30;;;7.20;98.00;;;;;;5030078;28;20455;-85
2023/11/18 09:00:52;;;;;;;6.53;3.70;;;7.20;98.00;;;;;;5030559;28;20476;-85
2023/11/18 09:03:27;;;;;;;6.07;3.33;;;7.10;98.00;;;;;;5030600;28;20463;-85
2023/11/18 09:05:58;;;;;;;7.30;4.07;;;7.10;98.00;;;;;;5031192;28;20737;-85
2023/11/18 09:08:26;;;;;;;7.30;3.20;;;7.20;98.00;;;;;;5030684;28;20494;-85
2023/11/18 09:10:54;;;;;;;7.87;3.27;;;7.40;98.00;;;;;;5029801;28;20496;-85
2023/11/18 09:13:25;;;;;;;5.70;3.00;;;7.50;98.00;;;;;;5030477;28;20505;-84
2023/11/18 09:15:52;;;;;;;6.30;3.47;;;7.70;98.00;;;;;;5030813;28;20561;-84
2023/11/18 09:18:21;;;;;;;5.83;3.30;;;7.80;98.00;;;;;;5030358;28;20518;-85
2023/11/18 09:20:48;;;;;;;6.40;3.63;;;7.80;98.00;;;;;;5030516;28;20481;-85
2023/11/18 09:23:16;;;;;;;7.23;4.03;;;7.90;98.00;;;;;;5030819;28;20478;-85
2023/11/18 09:25:46;;;;;;;7.57;4.17;;;8.10;98.00;;;;;;5030522;28;20495;-85
2023/11/18 09:28:14;;;;;;;6.67;3.40;;;8.20;98.00;;;;;;5030483;28;20501;-85
2023/11/18 09:30:49;;;;;;;6.80;3.70;;;8.20;98.00;;;;;;5030038;28;20491;-85
2023/11/18 09:33:25;;;;;;;6.80;3.60;;;8.20;98.00;;;;;;5030522;28;20489;-85
2023/11/18 09:35:58;;;;;;;6.57;3.60;;;8.30;98.00;;;;;;5030684;28;20636;-86
2023/11/18 09:45:01;;;;;;;8.63;3.77;;;8.50;98.00;;;;;;4970158;28;21046;-89
2023/11/18 09:47:30;;;;;;;7.60;4.00;;;8.40;98.00;;;;;;4977281;28;20493;-86
2023/11/18 09:50:00;;;;;;;8.27;3.87;;;8.50;98.00;;;;;;5027856;28;20462;-87
2023/11/18 09:52:31;;;;;;;5.20;3.07;;;8.60;98.00;;;;;;5033946;28;20580;-87
2023/11/18 09:55:04;;;;;;;7.07;3.70;;;8.70;98.00;;;;;;5034480;28;20486;-87
2023/11/18 09:57:37;;;;;;;6.10;3.63;;;8.60;98.00;;;;;;5037177;28;20846;-87
2023/11/18 10:00:19;;;;;;;6.17;3.60;;;8.60;98.00;;;;;;5039575;28;20485;-86
2023/11/18 10:02:50;;;;;;;8.23;3.33;;;8.70;98.00;;;;;;5041163;28;20526;-85
2023/11/18 10:05:20;;;;;;;5.53;2.90;;;8.90;98.00;;;;;;5039585;28;20457;-86
2023/11/18 10:07:58;;;;;;;5.27;3.23;;;9.10;98.00;;;;;;5036124;28;20485;-86
2023/11/18 10:10:35;;;;;;;7.50;3.73;;;9.10;98.00;;;;;;5039587;28;20461;-86
2023/11/18 10:13:04;;;;;;;6.83;3.23;;;9.20;98.00;;;;;;5040440;28;20464;-86
2023/11/18 10:15:32;;;;;;;6.17;3.07;;;9.30;98.00;;;;;;5040483;28;20461;-85
2023/11/18 10:18:06;;;;;;;6.00;3.20;;;9.50;98.00;;;;;;5040181;28;20454;-85
2023/11/18 10:20:47;;;;;;;7.60;3.87;;;9.60;98.00;;;;;;5040120;28;20462;-85
2023/11/18 10:23:19;;;;;;;6.70;3.73;;;9.60;98.00;;;;;;5040440;28;20454;-86
2023/11/18 10:25:48;;;;;;;5.63;3.40;;;9.60;98.00;;;;;;5042397;28;20468;-86
2023/11/18 10:28:27;;;;;;;9.13;3.10;;;9.50;98.00;;;;;;5041068;28;20479;-87
2023/11/18 10:30:57;;;;;;;5.43;3.40;;;9.60;98.00;;;;;;5046165;28;20892;-86
2023/11/18 10:33:30;;;;;;;8.43;3.87;;;9.70;98.00;;;;;;5047106;28;20534;-85
2023/11/18 10:35:57;;;;;;;6.53;3.47;;;9.80;98.00;;;;;;5047240;28;20458;-86
2023/11/18 10:38:26;;;;;;;7.30;3.63;;;9.80;98.00;;;;;;5046553;28;20462;-87
2023/11/18 10:40:57;;;;;;;6.67;3.83;;;9.90;98.00;;;;;;5045601;28;20548;-88
2023/11/18 10:43:25;;;;;;;4.97;3.43;;;9.90;98.00;;;;;;5045116;28;20462;-86
2023/11/18 10:46:12;;;;;;;4.80;3.30;;;9.80;98.00;;;;;;5046233;28;20501;-87
2023/11/18 10:48:42;;;;;;;4.53;2.83;;;9.80;98.00;;;;;;5043253;28;20546;-87
2023/11/18 10:51:13;;;;;;;6.87;3.37;;;9.90;98.00;;;;;;5042715;28;20458;-86
2023/11/18 10:53:42;;;;;;;4.47;2.53;;;9.90;98.00;;;;;;5043844;28;20522;-86
2023/11/18 10:56:24;;;;;;;3.23;2.33;;;9.90;98.00;;;;;;5042561;28;20461;-87
2023/11/18 10:58:51;;;;;;;3.60;2.20;;;9.90;98.00;;;;;;5041560;28;20548;-87
2023/11/18 11:01:28;;;;;;;3.60;2.43;;;9.80;98.00;;;;;;5043128;28;20490;-86
2023/11/18 11:04:04;;;;;;;9.10;2.70;;;9.90;98.00;;;;;;5043891;28;20453;-87
2023/11/18 11:06:33;;;;;;;3.50;2.23;;;10.00;98.00;;;;;;5044422;28;20957;-86
2023/11/18 11:09:01;;;;;;;3.17;2.10;;;10.00;98.00;;;;;;5044839;28;20501;-86
2023/11/18 11:11:47;;;;;;;3.30;2.07;;;10.10;98.00;;;;;;5045071;28;20540;-86
2023/11/18 11:14:18;;;;;;;3.37;2.17;;;10.10;98.00;;;;;;5043408;28;20489;-86
2023/11/18 11:16:52;;;;;;;5.03;2.27;;;10.10;98.00;;;;;;5044498;28;20496;-86
2023/11/18 11:19:27;;;;;;;2.63;1.93;;;10.20;98.00;;;;;;5043756;28;20506;-86
2023/11/18 11:22:05;;;;;;;3.50;2.43;;;10.10;98.00;;;;;;5045284;28;20474;-86
2023/11/18 11:24:49;;;;;;;2.50;1.87;;;10.10;98.00;;;;;;5045675;28;20458;-86
2023/11/18 11:27:29;;;;;;;3.13;2.10;;;10.20;98.00;;;;;;5045885;28;20562;-86
2023/11/18 11:30:10;;;;;;;4.87;2.20;;;10.20;98.00;;;;;;5044449;28;20467;-88
2023/11/18 11:32:45;;;;;;;3.43;2.10;;;10.20;98.00;;;;;;5043866;28;20558;-86
2023/11/18 11:35:32;;;;;;;4.93;2.00;;;10.20;98.00;;;;;;5043162;28;20477;-86
2023/11/18 11:38:09;;;;;;;2.27;1.83;;;10.20;98.00;;;;;;5043684;28;20484;-86
2023/11/18 11:40:37;;;;;;;2.57;1.70;;;10.30;98.00;;;;;;5044336;28;20478;-86
2023/11/18 11:43:09;;;;;;;2.77;2.00;;;10.30;98.00;;;;;;5045409;28;20521;-86
2023/11/18 11:45:36;;;;;;;2.17;1.70;;;10.30;98.00;;;;;;5047416;28;20558;-86
2023/11/18 11:48:16;;;;;;;3.90;2.20;;;10.40;98.00;;;;;;5046361;28;20485;-86
2023/11/18 11:51:14;;;;;;;5.13;2.03;;;10.40;98.00;;;;;;5047025;28;20916;-86
2023/11/18 11:53:46;;;;;;;3.20;2.23;;;10.40;98.00;;;;;;5046466;28;20828;-86
2023/11/18 11:56:20;;;;;;;3.33;2.07;;;10.30;98.00;;;;;;5045212;28;20463;-85
2023/11/18 11:58:52;;;;;;;2.60;1.90;;;10.20;98.00;;;;;;5045647;28;20450;-85
2023/11/18 12:01:29;;;;;;;4.17;2.00;;;10.10;98.00;;;;;;5047492;28;20515;-87
2023/11/18 12:04:06;;;;;;;3.90;1.97;;;10.00;98.00;;;;;;5048416;28;20451;-90
2023/11/18 12:06:35;;;;;;;2.53;2.00;;;10.00;98.00;;;;;;5048322;28;20458;-89
2023/11/18 12:09:06;;;;;;;3.00;2.20;;;10.00;98.00;;;;;;5047126;28;20505;-87
2023/11/18 12:11:39;;;;;;;4.80;2.17;;;9.90;98.00;;;;;;5047376;28;20509;-86
2023/11/18 12:14:12;;;;;;;4.30;2.10;;;10.00;98.00;;;;;;5046965;28;20486;-87
2023/11/18 12:17:08;;;;;;;3.73;2.27;;;10.10;98.00;;;;;;5048279;28;20451;-86
2023/11/18 12:19:46;;;;;;;3.73;1.87;;;10.10;98.00;;;;;;5044029;28;20486;-88
2023/11/18 12:22:23;;;;;;;2.50;2.00;;;10.10;98.00;;;;;;5047504;28;20502;-88
2023/11/18 12:25:36;;;;;;;3.80;1.97;;;10.10;98.00;;;;;;5048878;28;20465;-88
2023/11/18 12:28:21;;;;;;;2.33;1.80;;;10.10;98.00;;;;;;5046776;28;20565;-85
2023/11/18 12:30:56;;;;;;;2.03;1.73;;;10.30;98.00;;;;;;5046135;28;20735;-85
2023/11/18 12:33:26;;;;;;;2.33;2.00;;;10.30;98.00;;;;;;5046243;28;20456;-85
2023/11/18 12:36:32;;;;;;;3.23;2.10;;;10.40;98.00;;;;;;5047246;28;21021;-86
2023/11/18 12:39:33;;;;;;;3.20;1.90;;;10.40;98.00;;;;;;5028944;28;20455;-88
2023/11/18 12:42:11;;;;;;;2.57;1.80;;;10.40;98.00;;;;;;5049120;28;20485;-87
2023/11/18 12:44:41;;;;;;;6.20;2.13;;;10.40;98.00;;;;;;5050888;28;20496;-86
2023/11/18 12:47:18;;;;;;;3.57;2.17;;;10.40;98.00;;;;;;5050618;28;20451;-86
2023/11/18 12:49:49;;;;;;;2.53;1.80;;;10.40;98.00;;;;;;5046962;28;20473;-86
2023/11/18 12:52:18;;;;;;;4.67;2.10;;;10.40;98.00;;;;;;5046417;28;20467;-86
2023/11/18 12:54:50;;;;;;;2.43;1.80;;;10.30;98.00;;;;;;5047539;28;20467;-86
2023/11/18 12:57:17;;;;;;;4.53;2.57;;;10.30;98.00;;;;;;5047408;28;20459;-87
2023/11/18 12:59:46;;;;;;;4.30;2.40;;;10.20;98.00;;;;;;5046284;28;20458;-86
2023/11/18 13:02:19;;;;;;;6.77;3.20;;;10.20;98.00;;;;;;5046759;28;20475;-87
2023/11/18 13:04:47;;;;;;;5.07;2.73;;;10.20;98.00;;;;;;5045482;28;20462;-86
2023/11/18 13:07:15;;;;;;;3.23;2.27;;;10.20;98.00;;;;;;5046034;28;20450;-89
2023/11/18 13:09:44;;;;;;;5.47;3.10;;;10.10;98.00;;;;;;5046075;28;20494;-86
2023/11/18 13:12:15;;;;;;;6.70;3.33;;;10.20;98.00;;;;;;5046462;28;20535;-85
2023/11/18 13:14:43;;;;;;;8.47;4.00;;;10.10;98.00;;;;;;5046043;28;20473;-87
2023/11/18 13:17:12;;;;;;;5.10;2.90;;;10.10;98.00;;;;;;5045911;28;20459;-88